createdAt,value
2017-08-12T00:00:25.429Z,14.40
2017-08-12T00:02:52.942Z,14.40
2017-08-12T00:05:20.514Z,14.40
2017-08-12T00:07:48.040Z,14.40
2017-08-12T00:10:15.988Z,14.40
2017-08-12T00:12:43.620Z,14.40
2017-08-12T00:15:11.167Z,14.40
2017-08-12T00:17:38.709Z,14.40
2017-08-12T00:20:06.214Z,14.40
2017-08-12T00:22:33.756Z,14.40
2017-08-12T00:25:01.296Z,14.40
2017-08-12T00:27:28.832Z,14.40
2017-08-12T00:29:56.415Z,14.40
2017-08-12T00:32:23.929Z,14.40
2017-08-12T00:34:51.801Z,14.40
2017-08-12T00:37:19.318Z,14.40
2017-08-12T00:39:46.873Z,14.40
2017-08-12T00:42:14.433Z,14.50
2017-08-12T00:44:43.043Z,14.40
2017-08-12T00:47:10.569Z,14.40
2017-08-12T00:49:38.105Z,14.40
2017-08-12T00:52:05.634Z,14.40
2017-08-12T00:54:33.578Z,14.40
2017-08-12T00:57:01.566Z,14.40
2017-08-12T00:59:29.072Z,14.40
2017-08-12T01:01:56.614Z,14.40
2017-08-12T01:04:24.140Z,14.40
2017-08-12T01:06:51.686Z,14.40
2017-08-12T01:09:19.216Z,14.40
2017-08-12T01:11:46.776Z,14.40
2017-08-12T01:14:14.313Z,14.40
2017-08-12T01:16:41.858Z,14.40
2017-08-12T01:19:09.393Z,14.30
2017-08-12T01:21:37.317Z,14.30
2017-08-12T01:24:04.844Z,14.30
2017-08-12T01:26:32.401Z,14.30
2017-08-12T01:28:59.939Z,14.30
2017-08-12T01:31:27.851Z,14.30
2017-08-12T01:33:56.436Z,14.30
2017-08-12T01:36:23.944Z,14.30
2017-08-12T01:38:51.899Z,14.30
2017-08-12T01:41:19.432Z,14.30
2017-08-12T01:43:46.999Z,14.30
2017-08-12T01:46:14.541Z,14.30
2017-08-12T01:48:42.113Z,14.30
2017-08-12T01:51:09.640Z,14.30
2017-08-12T01:53:37.158Z,14.30
2017-08-12T01:56:04.702Z,14.30
2017-08-12T01:58:32.226Z,14.30
2017-08-12T02:00:59.754Z,14.30
2017-08-12T02:03:27.273Z,14.30
2017-08-12T02:05:54.833Z,14.30
2017-08-12T02:08:22.368Z,14.30
2017-08-12T02:10:49.918Z,14.20
2017-08-12T02:13:17.453Z,14.20
2017-08-12T02:15:45.025Z,14.20
2017-08-12T02:18:12.534Z,14.20
2017-08-12T02:20:40.470Z,14.20
2017-08-12T02:23:08.018Z,14.20
2017-08-12T02:25:35.556Z,14.20
2017-08-12T02:28:03.119Z,14.20
2017-08-12T02:30:30.655Z,14.10
2017-08-12T02:32:58.190Z,14.20
2017-08-12T02:35:26.053Z,14.20
2017-08-12T02:37:53.583Z,14.10
2017-08-12T02:40:21.121Z,14.20
2017-08-12T02:42:48.675Z,14.10
2017-08-12T02:45:16.191Z,14.10
2017-08-12T02:47:43.730Z,14.10
2017-08-12T02:50:11.255Z,14.10
2017-08-12T02:52:38.803Z,14.10
2017-08-12T02:55:06.362Z,14.10
2017-08-12T02:57:33.896Z,14.10
2017-08-12T03:00:01.474Z,14.10
2017-08-12T03:02:29.005Z,14.10
2017-08-12T03:04:56.572Z,14.10
2017-08-12T03:07:25.113Z,14.00
2017-08-12T03:09:52.704Z,14.00
2017-08-12T03:12:20.643Z,13.90
2017-08-12T03:14:48.161Z,13.90
2017-08-12T03:17:15.696Z,13.80
2017-08-12T03:19:43.237Z,13.80
2017-08-12T03:22:11.178Z,13.70
2017-08-12T03:24:38.688Z,13.70
2017-08-12T03:27:06.261Z,13.60
2017-08-12T03:29:33.793Z,13.50
2017-08-12T03:32:01.343Z,13.50
2017-08-12T03:34:30.868Z,13.40
2017-08-12T03:36:58.428Z,13.40
2017-08-12T03:39:25.962Z,13.40
2017-08-12T03:41:53.893Z,13.30
2017-08-12T03:44:21.437Z,13.30
2017-08-12T03:46:48.973Z,13.30
2017-08-12T03:49:16.555Z,13.20
2017-08-12T03:51:44.088Z,13.20
2017-08-12T03:54:11.637Z,13.10
2017-08-12T03:56:39.174Z,13.10
2017-08-12T03:59:06.773Z,13.10
2017-08-12T04:01:34.296Z,13.10
2017-08-12T04:04:02.233Z,13.00
2017-08-12T04:06:29.776Z,13.10
2017-08-12T04:08:57.301Z,13.00
2017-08-12T04:11:25.594Z,13.00
2017-08-12T04:13:53.148Z,13.00
2017-08-12T04:16:20.710Z,13.00
2017-08-12T04:18:48.247Z,13.00
2017-08-12T04:21:15.844Z,13.00
2017-08-12T04:23:43.380Z,13.00
2017-08-12T04:26:10.942Z,13.00
2017-08-12T04:28:38.469Z,13.00
2017-08-12T04:31:06.428Z,13.00
2017-08-12T04:33:34.409Z,13.00
2017-08-12T04:36:01.963Z,13.00
2017-08-12T04:38:29.526Z,13.00
2017-08-12T04:40:57.087Z,13.00
2017-08-12T04:43:24.633Z,13.00
2017-08-12T04:45:52.233Z,13.00
2017-08-12T04:48:19.792Z,13.00
2017-08-12T04:50:47.336Z,13.00
2017-08-12T04:53:14.886Z,13.00
2017-08-12T04:55:42.424Z,13.00
2017-08-12T04:58:09.949Z,13.00
2017-08-12T05:00:37.557Z,13.00
2017-08-12T05:03:05.151Z,13.00
2017-08-12T05:05:32.711Z,13.00
2017-08-12T05:08:00.254Z,13.10
2017-08-12T05:10:27.807Z,13.00
2017-08-12T05:12:55.337Z,13.00
2017-08-12T05:15:23.278Z,13.00
2017-08-12T05:17:50.823Z,13.00
2017-08-12T05:20:18.340Z,13.00
2017-08-12T05:22:45.886Z,13.00
2017-08-12T05:25:13.470Z,13.00
2017-08-12T05:27:41.043Z,13.10
2017-08-12T05:30:08.563Z,13.10
2017-08-12T05:32:36.123Z,13.10
2017-08-12T05:35:03.690Z,13.20
2017-08-12T05:37:31.250Z,13.10
2017-08-12T05:39:58.806Z,13.20
2017-08-12T05:42:26.873Z,13.10
2017-08-12T05:44:54.819Z,13.20
2017-08-12T05:47:22.747Z,13.20
2017-08-12T05:49:50.336Z,13.20
2017-08-12T05:52:17.887Z,13.20
2017-08-12T05:54:45.481Z,13.20
2017-08-12T05:57:13.025Z,13.20
2017-08-12T05:59:41.006Z,13.10
2017-08-12T06:02:08.615Z,13.20
2017-08-12T06:04:36.185Z,13.10
2017-08-12T06:07:03.745Z,13.10
2017-08-12T06:09:31.348Z,13.10
2017-08-12T06:11:58.939Z,13.10
2017-08-12T06:14:26.832Z,13.20
2017-08-12T06:16:54.873Z,13.20
2017-08-12T06:19:22.423Z,13.20
2017-08-12T06:21:49.968Z,13.30
2017-08-12T06:24:17.550Z,13.30
2017-08-12T06:26:45.129Z,13.30
2017-08-12T06:29:12.673Z,13.40
2017-08-12T06:31:40.218Z,13.40
2017-08-12T06:34:07.768Z,13.40
2017-08-12T06:36:35.291Z,13.40
2017-08-12T06:39:03.257Z,13.50
2017-08-12T06:41:31.181Z,13.50
2017-08-12T06:43:58.824Z,13.50
2017-08-12T06:46:27.066Z,13.50
2017-08-12T06:48:55.097Z,13.50
2017-08-12T06:51:22.719Z,13.50
2017-08-12T06:53:50.247Z,13.50
2017-08-12T06:56:17.823Z,13.50
2017-08-12T06:58:45.386Z,13.50
2017-08-12T07:01:13.374Z,13.60
2017-08-12T07:03:40.893Z,13.60
2017-08-12T07:06:08.471Z,13.50
2017-08-12T07:08:36.029Z,13.60
2017-08-12T07:11:03.571Z,13.60
2017-08-12T07:13:31.202Z,13.60
2017-08-12T07:15:58.777Z,13.60
2017-08-12T07:18:26.352Z,13.60
2017-08-12T07:20:53.884Z,13.60
2017-08-12T07:23:21.433Z,13.60
2017-08-12T07:25:48.969Z,13.60
2017-08-12T07:28:16.574Z,13.70
2017-08-12T07:30:44.297Z,13.70
2017-08-12T07:33:11.861Z,13.70
2017-08-12T07:35:39.417Z,13.70
2017-08-12T07:38:06.975Z,13.70
2017-08-12T07:40:34.550Z,13.70
2017-08-12T07:43:02.083Z,13.70
2017-08-12T07:45:29.634Z,13.70
2017-08-12T07:48:22.014Z,13.70
2017-08-12T07:50:49.621Z,13.70
2017-08-12T07:53:17.167Z,13.80
2017-08-12T07:55:44.731Z,13.80
2017-08-12T07:58:12.275Z,13.80
2017-08-12T08:00:40.197Z,13.90
2017-08-12T08:03:07.746Z,13.90
2017-08-12T08:05:35.274Z,13.90
2017-08-12T08:08:02.808Z,13.90
2017-08-12T08:10:30.716Z,13.90
2017-08-12T08:12:58.301Z,13.90
2017-08-12T08:15:26.560Z,13.90
2017-08-12T08:17:54.152Z,13.80
2017-08-12T08:20:21.696Z,13.90
2017-08-12T08:22:49.625Z,13.90
2017-08-12T08:25:17.195Z,13.80
2017-08-12T08:27:44.812Z,13.80
2017-08-12T08:30:12.723Z,13.80
2017-08-12T08:32:40.280Z,13.90
2017-08-12T08:35:07.826Z,13.90
2017-08-12T08:37:35.358Z,13.90
2017-08-12T08:40:03.296Z,14.00
2017-08-12T08:42:31.212Z,14.00
2017-08-12T08:44:58.763Z,14.10
2017-08-12T08:47:27.145Z,14.00
2017-08-12T08:49:55.661Z,14.10
2017-08-12T08:52:23.213Z,14.10
2017-08-12T08:54:50.778Z,14.10
2017-08-12T08:57:18.301Z,14.10
2017-08-12T08:59:45.847Z,14.10
2017-08-12T09:02:13.821Z,14.10
2017-08-12T09:04:41.380Z,14.10
2017-08-12T09:07:08.952Z,14.10
2017-08-12T09:09:36.505Z,14.20
2017-08-12T09:12:04.059Z,14.20
2017-08-12T09:14:31.620Z,14.10
2017-08-12T09:16:59.233Z,14.10
2017-08-12T09:19:26.787Z,14.20
2017-08-12T09:21:55.156Z,14.20
2017-08-12T09:24:22.677Z,14.20
2017-08-12T09:26:50.229Z,14.20
2017-08-12T09:29:17.805Z,14.20
2017-08-12T09:31:45.370Z,14.30
2017-08-12T09:34:12.994Z,14.30
2017-08-12T09:36:40.901Z,14.30
2017-08-12T09:39:08.453Z,14.30
2017-08-12T09:41:35.982Z,14.30
2017-08-12T09:44:04.034Z,14.30
2017-08-12T09:46:31.557Z,14.30
2017-08-12T09:49:00.217Z,14.30
2017-08-12T09:51:27.736Z,14.30
2017-08-12T09:53:55.715Z,14.30
2017-08-12T09:56:23.653Z,14.40
2017-08-12T09:58:51.257Z,14.40
2017-08-12T10:01:18.822Z,14.40
2017-08-12T10:03:46.328Z,14.40
2017-08-12T10:06:13.954Z,14.30
2017-08-12T10:08:41.495Z,14.40
2017-08-12T10:11:09.044Z,14.30
2017-08-12T10:13:36.655Z,14.30
2017-08-12T10:16:04.278Z,14.30
2017-08-12T10:18:31.797Z,14.40
2017-08-12T10:20:59.374Z,14.30
2017-08-12T10:23:27.304Z,14.40
2017-08-12T10:25:55.643Z,14.40
2017-08-12T10:28:23.194Z,14.40
2017-08-12T10:30:50.755Z,14.40
2017-08-12T10:33:18.291Z,14.40
2017-08-12T10:35:45.825Z,14.40
2017-08-12T10:38:13.431Z,14.50
2017-08-12T10:40:40.990Z,14.40
2017-08-12T10:43:08.542Z,14.50
2017-08-12T10:45:36.473Z,14.50
2017-08-12T10:48:04.014Z,14.50
2017-08-12T10:50:31.532Z,14.50
2017-08-12T10:52:59.068Z,14.50
2017-08-12T10:55:27.019Z,14.50
2017-08-12T10:57:54.643Z,14.50
2017-08-12T11:00:22.175Z,14.50
2017-08-12T11:02:50.272Z,14.50
2017-08-12T11:05:17.850Z,14.60
2017-08-12T11:07:45.397Z,14.60
2017-08-12T11:10:13.755Z,14.60
2017-08-12T11:12:41.337Z,14.70
2017-08-12T11:15:09.004Z,14.70
2017-08-12T11:17:36.661Z,14.80
2017-08-12T11:20:04.219Z,14.70
2017-08-12T11:22:31.765Z,14.80
2017-08-12T11:24:59.489Z,14.80
2017-08-12T11:27:27.252Z,14.90
2017-08-12T11:29:55.638Z,14.90
2017-08-12T11:32:23.169Z,15.00
2017-08-12T11:34:51.017Z,15.00
2017-08-12T11:37:18.584Z,15.00
2017-08-12T11:39:46.182Z,15.00
2017-08-12T11:42:13.708Z,15.00
2017-08-12T11:44:41.618Z,15.00
2017-08-12T11:47:09.174Z,15.00
2017-08-12T11:49:36.715Z,15.00
2017-08-12T11:52:04.298Z,15.00
2017-08-12T11:54:31.801Z,15.00
2017-08-12T11:56:59.352Z,15.10
2017-08-12T11:59:26.947Z,15.10
2017-08-12T12:01:54.595Z,15.20
2017-08-12T12:04:23.167Z,15.20
2017-08-12T12:06:51.246Z,15.20
2017-08-12T12:09:18.880Z,15.20
2017-08-12T12:11:46.852Z,15.20
2017-08-12T12:14:14.389Z,15.20
2017-08-12T12:16:42.136Z,15.30
2017-08-12T12:19:09.786Z,15.30
2017-08-12T12:21:37.488Z,15.30
2017-08-12T12:24:05.103Z,15.30
2017-08-12T12:26:32.665Z,15.30
2017-08-12T12:29:00.298Z,15.40
2017-08-12T12:31:28.210Z,15.40
2017-08-12T12:33:55.819Z,15.40
2017-08-12T12:36:23.754Z,15.50
2017-08-12T12:38:51.365Z,15.50
2017-08-12T12:41:19.386Z,15.50
2017-08-12T12:43:46.903Z,15.50
2017-08-12T12:46:14.438Z,15.50
2017-08-12T12:48:42.222Z,15.60
2017-08-12T12:51:09.961Z,15.60
2017-08-12T12:53:37.570Z,15.60
2017-08-12T12:56:05.307Z,15.70
2017-08-12T12:58:32.879Z,15.70
2017-08-12T13:01:00.557Z,15.70
2017-08-12T13:03:28.139Z,15.80
2017-08-12T13:05:55.747Z,15.80
2017-08-12T13:08:23.486Z,15.80
2017-08-12T13:10:51.013Z,15.80
2017-08-12T13:13:18.834Z,15.80
2017-08-12T13:15:46.415Z,15.80
2017-08-12T13:18:13.992Z,15.80
2017-08-12T13:20:41.512Z,15.90
2017-08-12T13:23:09.264Z,15.90
2017-08-12T13:25:36.830Z,15.80
2017-08-12T13:28:04.470Z,15.80
2017-08-12T13:30:32.416Z,15.90
2017-08-12T13:32:59.954Z,15.90
2017-08-12T13:35:27.519Z,15.90
2017-08-12T13:37:55.044Z,15.90
2017-08-12T13:40:22.579Z,15.90
2017-08-12T13:42:50.261Z,15.90
2017-08-12T13:45:17.851Z,15.90
2017-08-12T13:47:45.376Z,15.90
2017-08-12T13:50:12.917Z,15.90
2017-08-12T13:52:40.509Z,16.00
2017-08-12T13:55:08.094Z,16.00
2017-08-12T13:57:35.642Z,16.00
2017-08-12T14:00:03.246Z,16.00
2017-08-12T14:02:30.834Z,16.00
2017-08-12T14:04:59.319Z,16.00
2017-08-12T14:07:26.920Z,16.10
2017-08-12T14:09:54.544Z,16.10
2017-08-12T14:12:22.079Z,16.10
2017-08-12T14:14:51.118Z,16.20
2017-08-12T14:17:19.868Z,16.20
2017-08-12T14:19:47.406Z,16.30
2017-08-12T14:22:15.010Z,16.30
2017-08-12T14:24:42.588Z,16.40
2017-08-12T14:27:10.946Z,16.40
2017-08-12T14:29:38.469Z,16.40
2017-08-12T14:32:06.010Z,16.50
2017-08-12T14:34:33.662Z,16.50
2017-08-12T14:37:01.553Z,16.60
2017-08-12T14:39:29.090Z,16.60
2017-08-12T14:41:57.036Z,16.70
2017-08-12T14:44:24.820Z,16.70
2017-08-12T14:46:52.826Z,16.70
2017-08-12T14:49:20.433Z,16.80
2017-08-12T14:51:48.988Z,16.80
2017-08-12T14:54:17.293Z,16.80
2017-08-12T14:56:44.966Z,16.80
2017-08-12T14:59:12.582Z,16.90
2017-08-12T15:01:40.233Z,16.90
2017-08-12T15:04:07.825Z,17.00
2017-08-12T15:06:35.627Z,17.00
2017-08-12T15:09:03.289Z,17.00
2017-08-12T15:11:31.370Z,17.00
2017-08-12T15:13:58.909Z,17.00
2017-08-12T15:16:26.656Z,17.00
2017-08-12T15:18:54.252Z,16.90
2017-08-12T15:21:21.971Z,16.90
2017-08-12T15:23:49.795Z,16.80
2017-08-12T15:26:17.610Z,16.80
2017-08-12T15:28:45.164Z,16.80
2017-08-12T15:31:12.688Z,16.70
2017-08-12T15:33:40.248Z,16.70
2017-08-12T15:36:07.877Z,16.70
2017-08-12T15:38:35.521Z,16.70
2017-08-12T15:41:04.512Z,16.70
2017-08-12T15:43:32.829Z,16.70
2017-08-12T15:46:00.378Z,16.70
2017-08-12T15:48:31.622Z,16.60
2017-08-12T15:51:05.634Z,16.70
2017-08-12T15:56:06.265Z,16.60
2017-08-12T15:58:34.660Z,16.60
2017-08-12T16:01:02.282Z,16.70
2017-08-12T16:03:32.421Z,16.60
2017-08-12T16:06:03.882Z,16.70
2017-08-12T16:08:31.979Z,16.60
2017-08-12T16:11:00.971Z,16.60
2017-08-12T16:13:29.454Z,16.60
2017-08-12T16:15:57.220Z,16.60
2017-08-12T16:18:25.956Z,16.60
2017-08-12T16:20:53.701Z,16.70
2017-08-12T16:23:22.805Z,16.60
2017-08-12T16:25:51.120Z,16.70
2017-08-12T16:28:18.683Z,16.60
2017-08-12T16:30:46.251Z,16.60
2017-08-12T16:33:14.606Z,16.70
2017-08-12T16:35:42.127Z,16.70
2017-08-12T16:38:10.212Z,16.70
2017-08-12T16:40:37.967Z,16.70
2017-08-12T16:43:05.523Z,16.70
2017-08-12T16:45:33.082Z,16.80
2017-08-12T16:48:00.612Z,16.80
2017-08-12T16:50:28.761Z,16.80
2017-08-12T16:52:58.277Z,16.80
2017-08-12T16:55:26.226Z,16.80
2017-08-12T16:57:54.802Z,16.80
2017-08-12T17:00:22.415Z,16.80
2017-08-12T17:02:49.946Z,16.80
2017-08-12T17:05:17.696Z,16.80
2017-08-12T17:07:45.314Z,16.80
2017-08-12T17:10:12.915Z,16.80
2017-08-12T17:12:40.442Z,16.80
2017-08-12T17:15:08.032Z,16.80
2017-08-12T17:17:38.630Z,16.80
2017-08-12T17:20:28.662Z,16.80
2017-08-12T17:22:56.517Z,16.70
2017-08-12T17:25:25.524Z,16.70
2017-08-12T17:27:59.995Z,16.70
2017-08-12T17:30:28.497Z,16.70
2017-08-12T17:32:56.021Z,16.60
2017-08-12T17:35:23.886Z,16.60
2017-08-12T17:37:51.436Z,16.60
2017-08-12T17:40:23.041Z,16.60
2017-08-12T17:43:21.169Z,16.50
2017-08-12T17:56:04.857Z,16.50
2017-08-12T17:58:35.531Z,16.50
2017-08-12T18:01:04.438Z,16.50
2017-08-12T18:03:40.317Z,16.50
2017-08-12T18:06:11.140Z,16.50
2017-08-12T18:11:31.758Z,16.50
2017-08-12T18:13:59.396Z,16.60
2017-08-12T18:16:26.982Z,16.60
2017-08-12T18:18:54.712Z,16.60
2017-08-12T18:21:22.356Z,16.60
2017-08-12T18:23:49.997Z,16.50
2017-08-12T18:26:17.653Z,16.50
2017-08-12T18:28:45.236Z,16.60
2017-08-12T18:31:12.809Z,16.50
2017-08-12T18:33:40.413Z,16.50
2017-08-12T18:36:07.990Z,16.40
2017-08-12T18:38:36.591Z,16.50
2017-08-12T18:41:05.718Z,16.40
2017-08-12T18:43:33.348Z,16.50
2017-08-12T18:46:12.468Z,16.40
2017-08-12T18:49:05.673Z,16.40
2017-08-12T18:51:48.070Z,16.50
2017-08-12T18:54:17.948Z,16.40
2017-08-12T18:56:45.636Z,16.40
2017-08-12T18:59:13.228Z,16.40
2017-08-12T19:01:40.855Z,16.40
2017-08-12T19:04:08.520Z,16.40
2017-08-12T19:06:37.583Z,16.40
2017-08-12T19:09:05.304Z,16.40
2017-08-12T19:11:34.034Z,16.40
2017-08-12T19:14:03.990Z,16.40
2017-08-12T19:16:37.725Z,16.40
2017-08-12T19:21:56.447Z,16.40
2017-08-12T19:24:24.088Z,16.40
2017-08-12T19:26:51.638Z,16.40
2017-08-12T19:29:19.213Z,16.40
2017-08-12T19:31:46.738Z,16.40
2017-08-12T19:34:15.327Z,16.40
2017-08-12T19:36:42.909Z,16.50
2017-08-12T19:39:10.467Z,16.40
2017-08-12T19:41:38.053Z,16.40
2017-08-12T19:44:09.766Z,16.40
2017-08-12T19:46:38.018Z,16.40
2017-08-12T19:49:05.553Z,16.40
2017-08-12T19:51:35.143Z,16.40
2017-08-12T19:54:02.665Z,16.40
2017-08-12T19:56:30.220Z,16.40
2017-08-12T19:58:57.738Z,16.40
2017-08-12T20:01:25.315Z,16.40
2017-08-12T20:03:53.044Z,16.40
2017-08-12T20:06:20.671Z,16.40
2017-08-12T20:08:48.208Z,16.40
2017-08-12T20:11:15.772Z,16.40
2017-08-12T20:13:43.318Z,16.40
2017-08-12T20:16:10.840Z,16.40
2017-08-12T20:18:38.410Z,16.40
2017-08-12T20:21:05.942Z,16.40
2017-08-12T20:23:33.483Z,16.30
2017-08-12T20:26:01.025Z,16.40
2017-08-12T20:28:28.590Z,16.30
2017-08-12T20:30:56.162Z,16.40
2017-08-12T20:33:23.720Z,16.40
2017-08-12T20:35:51.257Z,16.30
2017-08-12T20:38:18.852Z,16.30
2017-08-12T20:40:46.367Z,16.30
2017-08-12T20:43:13.923Z,16.30
2017-08-12T20:45:41.446Z,16.30
2017-08-12T20:48:08.978Z,16.30
2017-08-12T20:50:36.515Z,16.30
2017-08-12T20:53:04.040Z,16.30
2017-08-12T20:55:31.599Z,16.30
2017-08-12T20:57:59.126Z,16.30
2017-08-12T21:00:26.681Z,16.30
2017-08-12T21:02:54.234Z,16.30
2017-08-12T21:05:21.795Z,16.40
2017-08-12T21:07:49.427Z,16.30
2017-08-12T21:10:17.001Z,16.40
2017-08-12T21:12:44.604Z,16.30
2017-08-12T21:15:12.299Z,16.30
2017-08-12T21:17:39.823Z,16.30
2017-08-12T21:20:07.417Z,16.30
2017-08-12T21:22:34.970Z,16.30
2017-08-12T21:25:02.943Z,16.30
2017-08-12T21:27:30.634Z,16.40
2017-08-12T21:29:58.192Z,16.40
2017-08-12T21:32:25.730Z,16.40
2017-08-12T21:34:53.252Z,16.30
2017-08-12T21:37:20.815Z,16.30
2017-08-12T21:39:48.338Z,16.30
2017-08-12T21:42:15.896Z,16.30
2017-08-12T21:44:43.423Z,16.30
2017-08-12T21:47:10.966Z,16.30
2017-08-12T21:49:38.479Z,16.30
2017-08-12T21:52:06.050Z,16.30
2017-08-12T21:54:33.577Z,16.30
2017-08-12T21:57:01.137Z,16.30
2017-08-12T21:59:28.662Z,16.30
2017-08-12T22:01:56.187Z,16.30
2017-08-12T22:04:23.792Z,16.30
2017-08-12T22:06:51.340Z,16.30
2017-08-12T22:09:18.914Z,16.30
2017-08-12T22:11:46.442Z,16.30
2017-08-12T22:14:14.050Z,16.30
2017-08-12T22:16:41.579Z,16.30
2017-08-12T22:19:09.137Z,16.30
2017-08-12T22:21:36.674Z,16.30
2017-08-12T22:24:04.228Z,16.30
2017-08-12T22:26:31.742Z,16.30
2017-08-12T22:28:59.283Z,16.30
2017-08-12T22:31:26.874Z,16.30
2017-08-12T22:33:54.421Z,16.30
2017-08-12T22:36:21.963Z,16.40
2017-08-12T22:38:49.508Z,16.40
2017-08-12T22:41:17.058Z,16.40
2017-08-12T22:43:44.633Z,16.30
2017-08-12T22:46:12.195Z,16.40
2017-08-12T22:48:39.718Z,16.30
2017-08-12T22:51:07.272Z,16.40
2017-08-12T22:53:34.802Z,16.40
2017-08-12T22:56:02.350Z,16.40
2017-08-12T22:58:29.886Z,16.40
2017-08-12T23:00:57.443Z,16.40
2017-08-12T23:03:24.990Z,16.40
2017-08-12T23:05:52.535Z,16.40
2017-08-12T23:08:20.096Z,16.40
2017-08-12T23:10:47.623Z,16.40
2017-08-12T23:13:15.165Z,16.40
2017-08-12T23:15:42.695Z,16.40
2017-08-12T23:18:10.256Z,16.30
2017-08-12T23:20:37.775Z,16.30
2017-08-12T23:23:05.351Z,16.40
2017-08-12T23:25:32.889Z,16.30
2017-08-12T23:28:00.464Z,16.30
2017-08-12T23:30:28.037Z,16.40
2017-08-12T23:32:55.734Z,16.40
2017-08-12T23:35:23.295Z,16.40
2017-08-12T23:37:50.818Z,16.40
2017-08-12T23:40:18.369Z,16.30
2017-08-12T23:42:45.910Z,16.30
2017-08-12T23:45:13.461Z,16.30
2017-08-12T23:47:41.003Z,16.30
2017-08-12T23:50:08.533Z,16.30
2017-08-12T23:52:36.089Z,16.30
2017-08-12T23:55:03.623Z,16.40
2017-08-12T23:57:31.168Z,16.40
2017-08-12T23:59:58.716Z,16.40
